Liberty — WDD2088 — position and weather

sailwx.info

Track history (hours):
 
Tides and Currents Weather Stations Pressure Air Temp Water Temp Dewpoint Dewpoint Depression Visibility Wind Speed Wind Dir Waves Ship Positions

Liberty

Owner: HORIZON 82 LEASING LLC, Provo, UT. More information available from US FCC via Universal Licensing System.

Last reported at 2016-Jun-29 21:29 UTC. Time now 2016-Jun-29 23:47 UTC.
Position N 48°45' W 122°55'.

Length 25 m; draft 2.2 m.

MMSI: 367110770.

Date/timePositionNaut miles runAvg speedWind from/ knotsBaromVisibWave heightAir tempDewpointWater temp
2016-Jun-29 21:29N 48°45' W 122°55'2 2.1
2016-Jun-29 20:32N 48°44' W 122°58'10 1.0
2016-Jun-29 10:25N 48°41' W 123°12'0 0.0
2016-Jun-29 09:31N 48°41' W 123°12'0 0.0
2016-Jun-29 04:13N 48°41' W 123°12'0 0.0
2016-Jun-29 03:25N 48°41' W 123°12'0 0.0
2016-Jun-29 02:29N 48°41' W 123°12'0 0.0
2016-Jun-29 01:30N 48°41' W 123°12'0 0.0
2016-Jun-29 00:31N 48°41' W 123°12'0 0.0
2016-Jun-28 23:14N 48°41' W 123°12'6 7.5
2016-Jun-28 22:27N 48°38' W 123°04'1 1.2
2016-Jun-28 21:32N 48°37' W 123°03'5 5.1
2016-Jun-28 20:34N 48°37' W 123°10'0 0.4
2016-Jun-28 19:23N 48°37' W 123°10'0 0.0
2016-Jun-28 18:20N 48°37' W 123°10'0 0.0
2016-Jun-28 17:29N 48°37' W 123°10'0 0.0
2016-Jun-28 16:32N 48°37' W 123°10'0 0.0
2016-Jun-28 15:23N 48°37' W 123°10'0 0.0
2016-Jun-28 14:29N 48°37' W 123°10'0 0.0
2016-Jun-28 13:32N 48°37' W 123°10'0 0.0
2016-Jun-28 12:29N 48°37' W 123°10'0 0.0
2016-Jun-28 11:29N 48°37' W 123°10'0 0.0
2016-Jun-28 10:26N 48°37' W 123°10'0 0.0
2016-Jun-28 09:32N 48°37' W 123°10'0 0.0
2016-Jun-28 08:23N 48°37' W 123°10'0 0.0
2016-Jun-28 07:32N 48°37' W 123°10'0 0.0
2016-Jun-28 06:29N 48°37' W 123°10'0 0.0
2016-Jun-28 04:32N 48°37' W 123°10'0 0.0
2016-Jun-28 03:32N 48°37' W 123°10'0 0.0
2016-Jun-28 02:23N 48°37' W 123°10'0 0.0
2016-Jun-28 01:29N 48°37' W 123°10'0 0.0
2016-Jun-28 00:20N 48°37' W 123°10'0 0.0
2016-Jun-27 23:32N 48°37' W 123°10'0 0.2
2016-Jun-27 22:33N 48°37' W 123°09'6 5.8
2016-Jun-27 21:33N 48°36' W 123°00'9 8.7
2016-Jun-27 20:33N 48°32' W 122°49'9 8.8
2016-Jun-27 19:33N 48°31' W 122°36'0 0.2
2016-Jun-27 18:30N 48°31' W 122°36'0 0.0
2016-Jun-27 17:30N 48°31' W 122°36'0 0.0
2016-Jun-27 16:30N 48°31' W 122°36'0 0.0
2016-Jun-27 15:30N 48°31' W 122°36'0 0.0
2016-Jun-27 14:30N 48°31' W 122°36'0 0.0
2016-Jun-27 13:30N 48°31' W 122°36'0 0.0
2016-Jun-27 12:18N 48°31' W 122°36'0 0.0
2016-Jun-27 11:30N 48°31' W 122°36'0 0.0
2016-Jun-27 10:18N 48°31' W 122°36'0 0.0
2016-Jun-27 09:30N 48°31' W 122°36'0 0.0
2016-Jun-27 08:30N 48°31' W 122°36'0 0.0
2016-Jun-27 07:30N 48°31' W 122°36'0 0.0
2016-Jun-27 06:30N 48°31' W 122°36'0 0.0
2016-Jun-27 05:24N 48°31' W 122°36'0 0.0
2016-Jun-27 04:30N 48°31' W 122°36'0 0.0
2016-Jun-27 03:30N 48°31' W 122°36'0 0.0
2016-Jun-27 02:30N 48°31' W 122°36'3 2.9
2016-Jun-27 01:33N 48°30' W 122°33'3 0.3
2016-Jun-26 16:21N 48°27' W 122°31'0 0.0
2016-Jun-26 14:03N 48°27' W 122°31'0 0.0
2016-Jun-26 13:33N 48°27' W 122°31'0 0.0
2016-Jun-26 05:33N 48°27' W 122°31'0 0.0
2016-Jun-26 03:33N 48°27' W 122°31'0 0.0
2016-Jun-25 11:27N 48°27' W 122°31'0 0.0
2016-Jun-24 12:09N 48°27' W 122°31'0 0.0
2016-Jun-24 11:33N 48°27' W 122°31'0 0.0
2016-Jun-24 10:33N 48°27' W 122°31'0 0.0
2016-Jun-24 09:27N 48°27' W 122°31'0 0.0
2016-Jun-24 08:27N 48°27' W 122°31'0 0.0
2016-Jun-24 07:33N 48°27' W 122°31'0 0.0
2016-Jun-24 06:33N 48°27' W 122°31'0 0.0
2016-Jun-24 04:09N 48°27' W 122°31'0 0.0
2016-Jun-24 03:09N 48°27' W 122°31'0 0.0
2016-Jun-23 14:21N 48°27' W 122°31'0 0.0
2016-Jun-23 13:27N 48°27' W 122°31'0 0.0
2016-Jun-23 11:33N 48°27' W 122°31'0 0.0
2016-Jun-23 08:33N 48°27' W 122°31'0 0.0
2016-Jun-23 05:15N 48°27' W 122°31'0 0.0
2016-Jun-23 04:33N 48°27' W 122°31'0 0.0
2016-Jun-23 03:09N 48°27' W 122°31'0 0.0
2016-Jun-23 02:33N 48°27' W 122°31'0 0.0
2016-Jun-23 01:33N 48°27' W 122°31'0 0.0
2016-Jun-23 00:33N 48°27' W 122°31'0 0.0
2016-Jun-22 23:21N 48°27' W 122°31'0 0.0
2016-Jun-22 22:33N 48°27' W 122°31'0 0.0
2016-Jun-22 13:09N 48°27' W 122°31'0 0.0
2016-Jun-22 12:33N 48°27' W 122°31'0 0.0
2016-Jun-22 11:27N 48°27' W 122°31'0 0.0
2016-Jun-22 10:21N 48°27' W 122°31'0 0.0
2016-Jun-22 09:27N 48°27' W 122°31'0 0.0
2016-Jun-22 08:27N 48°27' W 122°31'0 0.0
2016-Jun-22 07:21N 48°27' W 122°31'0 0.0
2016-Jun-22 06:33N 48°27' W 122°31'0 0.0
2016-Jun-22 05:33N 48°27' W 122°31'0 0.0
2016-Jun-22 04:33N 48°27' W 122°31'0 0.0
2016-Jun-22 03:09N 48°27' W 122°31'0 0.0
2016-Jun-22 02:33N 48°27' W 122°31'0 0.0
2016-Jun-22 01:33N 48°27' W 122°31'0 0.0
2016-Jun-22 00:21N 48°27' W 122°31'0 0.0
2016-Jun-21 23:33N 48°27' W 122°31'0 0.0
2016-Jun-21 15:27N 48°27' W 122°31'0 0.0
2016-Jun-21 14:33N 48°27' W 122°31'0 0.0
2016-Jun-21 12:27N 48°27' W 122°31'0 0.0
2016-Jun-21 08:27N 48°27' W 122°31'0 0.0
2016-Jun-21 07:26N 48°27' W 122°31'0 0.0
2016-Jun-21 04:26N 48°27' W 122°31'0 0.0
2016-Jun-21 03:32N 48°27' W 122°31'0 0.0
2016-Jun-21 02:20N 48°27' W 122°31'0 0.0
2016-Jun-21 01:26N 48°27' W 122°31'0 0.0
2016-Jun-20 23:26N 48°27' W 122°31'0 0.0
2016-Jun-20 04:26N 48°27' W 122°31'0 0.0
2016-Jun-20 03:26N 48°27' W 122°31'0 0.0
2016-Jun-19 22:32N 48°27' W 122°31'  
Track history (hours):
 
Tides and Currents Weather Stations Pressure Air Temp Water Temp Dewpoint Dewpoint Depression Visibility Wind Speed Wind Dir Waves Ship Positions

Liberty

Owner: HORIZON 82 LEASING LLC, Provo, UT. More information available from US FCC via Universal Licensing System.

Last reported at 2016-Jun-29 21:29 UTC. Time now 2016-Jun-29 23:47 UTC.
Position N 48°45' W 122°55'.

Length 25 m; draft 2.2 m.

MMSI: 367110770.

Date/timePositionNaut miles runAvg speedWind from/ knotsBaromVisibWave heightAir tempDewpointWater temp
2016-Jun-29 21:29N 48°45' W 122°55'2 2.1
2016-Jun-29 20:32N 48°44' W 122°58'10 1.0
2016-Jun-29 10:25N 48°41' W 123°12'0 0.0
2016-Jun-29 09:31N 48°41' W 123°12'0 0.0
2016-Jun-29 04:13N 48°41' W 123°12'0 0.0
2016-Jun-29 03:25N 48°41' W 123°12'0 0.0
2016-Jun-29 02:29N 48°41' W 123°12'0 0.0
2016-Jun-29 01:30N 48°41' W 123°12'0 0.0
2016-Jun-29 00:31N 48°41' W 123°12'0 0.0
2016-Jun-28 23:14N 48°41' W 123°12'6 7.5
2016-Jun-28 22:27N 48°38' W 123°04'1 1.2
2016-Jun-28 21:32N 48°37' W 123°03'5 5.1
2016-Jun-28 20:34N 48°37' W 123°10'0 0.4
2016-Jun-28 19:23N 48°37' W 123°10'0 0.0
2016-Jun-28 18:20N 48°37' W 123°10'0 0.0
2016-Jun-28 17:29N 48°37' W 123°10'0 0.0
2016-Jun-28 16:32N 48°37' W 123°10'0 0.0
2016-Jun-28 15:23N 48°37' W 123°10'0 0.0
2016-Jun-28 14:29N 48°37' W 123°10'0 0.0
2016-Jun-28 13:32N 48°37' W 123°10'0 0.0
2016-Jun-28 12:29N 48°37' W 123°10'0 0.0
2016-Jun-28 11:29N 48°37' W 123°10'0 0.0
2016-Jun-28 10:26N 48°37' W 123°10'0 0.0
2016-Jun-28 09:32N 48°37' W 123°10'0 0.0
2016-Jun-28 08:23N 48°37' W 123°10'0 0.0
2016-Jun-28 07:32N 48°37' W 123°10'0 0.0
2016-Jun-28 06:29N 48°37' W 123°10'0 0.0
2016-Jun-28 04:32N 48°37' W 123°10'0 0.0
2016-Jun-28 03:32N 48°37' W 123°10'0 0.0
2016-Jun-28 02:23N 48°37' W 123°10'0 0.0
2016-Jun-28 01:29N 48°37' W 123°10'0 0.0
2016-Jun-28 00:20N 48°37' W 123°10'0 0.0
2016-Jun-27 23:32N 48°37' W 123°10'0 0.2
2016-Jun-27 22:33N 48°37' W 123°09'6 5.8
2016-Jun-27 21:33N 48°36' W 123°00'9 8.7
2016-Jun-27 20:33N 48°32' W 122°49'9 8.8
2016-Jun-27 19:33N 48°31' W 122°36'0 0.2
2016-Jun-27 18:30N 48°31' W 122°36'0 0.0
2016-Jun-27 17:30N 48°31' W 122°36'0 0.0
2016-Jun-27 16:30N 48°31' W 122°36'0 0.0
2016-Jun-27 15:30N 48°31' W 122°36'0 0.0
2016-Jun-27 14:30N 48°31' W 122°36'0 0.0
2016-Jun-27 13:30N 48°31' W 122°36'0 0.0
2016-Jun-27 12:18N 48°31' W 122°36'0 0.0
2016-Jun-27 11:30N 48°31' W 122°36'0 0.0
2016-Jun-27 10:18N 48°31' W 122°36'0 0.0
2016-Jun-27 09:30N 48°31' W 122°36'0 0.0
2016-Jun-27 08:30N 48°31' W 122°36'0 0.0
2016-Jun-27 07:30N 48°31' W 122°36'0 0.0
2016-Jun-27 06:30N 48°31' W 122°36'0 0.0
2016-Jun-27 05:24N 48°31' W 122°36'0 0.0
2016-Jun-27 04:30N 48°31' W 122°36'0 0.0
2016-Jun-27 03:30N 48°31' W 122°36'0 0.0
2016-Jun-27 02:30N 48°31' W 122°36'3 2.9
2016-Jun-27 01:33N 48°30' W 122°33'3 0.3
2016-Jun-26 16:21N 48°27' W 122°31'0 0.0
2016-Jun-26 14:03N 48°27' W 122°31'0 0.0
2016-Jun-26 13:33N 48°27' W 122°31'0 0.0
2016-Jun-26 05:33N 48°27' W 122°31'0 0.0
2016-Jun-26 03:33N 48°27' W 122°31'0 0.0
2016-Jun-25 11:27N 48°27' W 122°31'0 0.0
2016-Jun-24 12:09N 48°27' W 122°31'0 0.0
2016-Jun-24 11:33N 48°27' W 122°31'0 0.0
2016-Jun-24 10:33N 48°27' W 122°31'0 0.0
2016-Jun-24 09:27N 48°27' W 122°31'0 0.0
2016-Jun-24 08:27N 48°27' W 122°31'0 0.0
2016-Jun-24 07:33N 48°27' W 122°31'0 0.0
2016-Jun-24 06:33N 48°27' W 122°31'0 0.0
2016-Jun-24 04:09N 48°27' W 122°31'0 0.0
2016-Jun-24 03:09N 48°27' W 122°31'0 0.0
2016-Jun-23 14:21N 48°27' W 122°31'0 0.0
2016-Jun-23 13:27N 48°27' W 122°31'0 0.0
2016-Jun-23 11:33N 48°27' W 122°31'0 0.0
2016-Jun-23 08:33N 48°27' W 122°31'0 0.0
2016-Jun-23 05:15N 48°27' W 122°31'0 0.0
2016-Jun-23 04:33N 48°27' W 122°31'0 0.0
2016-Jun-23 03:09N 48°27' W 122°31'0 0.0
2016-Jun-23 02:33N 48°27' W 122°31'0 0.0
2016-Jun-23 01:33N 48°27' W 122°31'0 0.0
2016-Jun-23 00:33N 48°27' W 122°31'0 0.0
2016-Jun-22 23:21N 48°27' W 122°31'0 0.0
2016-Jun-22 22:33N 48°27' W 122°31'0 0.0
2016-Jun-22 13:09N 48°27' W 122°31'0 0.0
2016-Jun-22 12:33N 48°27' W 122°31'0 0.0
2016-Jun-22 11:27N 48°27' W 122°31'0 0.0
2016-Jun-22 10:21N 48°27' W 122°31'0 0.0
2016-Jun-22 09:27N 48°27' W 122°31'0 0.0
2016-Jun-22 08:27N 48°27' W 122°31'0 0.0
2016-Jun-22 07:21N 48°27' W 122°31'0 0.0
2016-Jun-22 06:33N 48°27' W 122°31'0 0.0
2016-Jun-22 05:33N 48°27' W 122°31'0 0.0
2016-Jun-22 04:33N 48°27' W 122°31'0 0.0
2016-Jun-22 03:09N 48°27' W 122°31'0 0.0
2016-Jun-22 02:33N 48°27' W 122°31'0 0.0
2016-Jun-22 01:33N 48°27' W 122°31'0 0.0
2016-Jun-22 00:21N 48°27' W 122°31'0 0.0
2016-Jun-21 23:33N 48°27' W 122°31'0 0.0
2016-Jun-21 15:27N 48°27' W 122°31'0 0.0
2016-Jun-21 14:33N 48°27' W 122°31'0 0.0
2016-Jun-21 12:27N 48°27' W 122°31'0 0.0
2016-Jun-21 08:27N 48°27' W 122°31'0 0.0
2016-Jun-21 07:26N 48°27' W 122°31'0 0.0
2016-Jun-21 04:26N 48°27' W 122°31'0 0.0
2016-Jun-21 03:32N 48°27' W 122°31'0 0.0
2016-Jun-21 02:20N 48°27' W 122°31'0 0.0
2016-Jun-21 01:26N 48°27' W 122°31'0 0.0
2016-Jun-20 23:26N 48°27' W 122°31'0 0.0
2016-Jun-20 04:26N 48°27' W 122°31'0 0.0
2016-Jun-20 03:26N 48°27' W 122°31'0 0.0
2016-Jun-19 22:32N 48°27' W 122°31'  

Dump ship's entire track history